RÉSULTATS
TVTC 2016

results_logo
Scratch 12 km nordique Féminin 12 km nordique Masculin 12 km nordique Catég. 12 km nordique

Scratch 6 km Féminin 6 km Masculin 6 km Catég. 6 km

Scratch 12 km Féminin 12 km Masculin 12 km Catég. 12 km

Scratch 24 km Féminin 24 km Masculin 24 km
Catég. 24 km

Statistiques
Temps officiel moyen : 02:15:32 (masc. 02:13:06 / fém. 02:31:52)
Finishers : 170 dont 148 masc. (87%) / 22 fém. (13%)
Licenciés : 50 (29 %)
Pour toute question concernant votre temps de course, cliquez ici
Class./cat.Nom de famille/PrénomTempsMoy.Doss.Nom du groupe/club ou entrepriseCatégorieSexePaysNuméro de licenceDiplômePartagez !
------------------------------------
1DUPARC Adrien02:12:0610.9050JUMFRA
------------------------------------
1GUEGAN Elodie01:57:5012.2272SEFFRA
2BERNADET Emilie02:16:2810.5513SEFFRA
3JOUAN Elise02:20:2610.2585SEFFRA
4FEMERY Nadège02:24:0310.0054SEFFRA
5HRISTOVA Raya02:26:219.8480SEFFRA
6ROUAULT Magali02:29:049.66143SEFFRA
7ROLLOT Morgane02:33:049.41141SEFFRA
8STREISSEL Marie-Caroline02:34:239.33157ANDRESY ATHLETISMESEFFRA1755670
9LANDAUD Adèle02:40:308.9793SEFFRA
10ROUE Delphine02:50:438.44144UAISEFFRA1729727
------------------------------------
1GENCE Bertrand01:35:3315.0763CMSEMFRA1756439
2TIREL Guillaume01:38:4814.57159ACCRORUNSEMFRA
3RAGUIDEAU JULIEN01:42:0114.12186SEMFRA
4RADUCKI Kevin01:46:2513.53135DRAVEIL TRIATHLONSEMFRAA01876C
5JORDAN Guillaume01:46:3713.5184SEMFRA
6CLERC Florian01:47:3713.3834SEMFRA
7DELARUELLE Jean-Baptiste01:48:4813.2442SEMFRA
8MANCHON Kévin01:49:2313.16107CAP COIGNIERESSEMFRA
9MAXIME EMMANUEL01:50:2813.04185SEMFRA
10GIRAUD Pascal01:50:3113.0367ASCC RAMBOUILLET OLYMPIQUESEMFRA
11GRAIZON Martin01:50:5212.9970SEMFRA
12LAHILLE Thomas01:50:5312.9992SEMFRA
13BOURCIER STEPHANE01:52:4612.77181SEMFRA
14OLIVIER Cyril01:53:5112.65122SEMFRA
15JAOUEN Yann01:55:3712.4582LA FINE ÉQUIPE DU 11SEMFRA
16MEILLAND Renaud01:55:3912.45114MEILLANDSEMFRAA04489C0130044MS4FRA
17HERMANT Rémi01:56:0012.4179SEMFRA
18BONNET Maxence01:56:1912.38173SEMFRA
19SOYER Hervé01:58:3112.15156ESPERANCE ENDURANCE TRAILSEMFRA1614670
20BOURGET Pierre01:58:3212.1526SEMFRA
21LACAINE Julien01:59:1812.0791CA BEYNESSEMFRA768270
22LANDES Remi01:59:5912.0095SEMFRA
23DEFOSSE Thomas02:00:1211.9841C.A.JSEMFRA1629257
24TISSOT Vincent02:02:1211.78160SEMFRA
25SELVES Frederic02:03:2511.67154SEMFRA
26MANSART Sébastien02:03:4011.64108SEMFRA
27CHIOMENTO Fabien02:04:5411.5333SEMFRA
28SABARLY Mathieu02:05:2711.48148SEMFRA
29CLEMENT SEBASTIEN02:05:4811.45184SEMFRA
30CHAPPUIS Julien02:05:5811.4330SEMFRA
31GOMES Emmanuel02:06:0011.4368SEMFRA
32PRUVOT Jerome02:06:5611.34179SEMFRA
33CHARBONNEAU Sébastien02:07:1411.3231SEMFRA
34BAUDONNET Thomas02:08:5611.1710NSTSEMFRAA74915C
35HAMONIER Cedric02:09:2111.1376SEMFRA
36BERTRAND Yannick02:09:4911.0914SEMFRA
37PINTO Raoul02:09:5811.08127SEMFRA
38DOUY Yohan02:12:1910.8846YPRL SAINT CYR TRIATHLONSEMFRAA57706C
39LEBLEU Jérôme02:12:4310.8599LES FURIEUX DU BITUMESEMFRA
40BOCQUET Olivier02:14:2310.7218SEMFRA
41BAS Ludovic02:15:0810.669CMSEMFRA1460710
42BACQUET Thomas02:15:3610.626SEMFRA
43DEBOSQUE Xavier02:15:5410.6040SEMFRA
44GUERCI Julien02:16:4010.5474SEMFRA
45POUZADOUX Matthieu02:17:3510.47131LE CHESNAY 78 ASSEMFRA148347
46SERGINSKY Fabian02:18:4810.37155SEMFRA
47LECOHUÉ Cédric02:20:1310.27100SEMFRA
48ROY Alexandre02:20:2110.26146LE CHESNAY 78 ASSEMFRA
49DOUY Benjamin02:20:3610.2445YPRL SAINT CYR TRIATHLONSEMFRAA75746C
50BUGAND Julien02:22:3410.1029SEMFRA
51LEJAY DAVID02:22:3610.10187SEMFRA
52DROUEN Guillaume02:23:4010.0247SEMFRA
53GILLON Julien02:25:449.8866SEMFRA
54DESHOULIERES Mathieu02:25:559.87175SEMFRA
55KOSZYCZARZ Cyril02:26:179.8489SEMFRA
56ROMAN Emmanuel02:26:179.84142SEMFRA
57RIBAUD Clément02:27:009.80138SEMFRA
58CRABEIL Thibaut02:27:009.8038SEMFRA
59GROSJEAN Samuel02:28:559.6771SEMFRA
60DUBAR Grégory02:30:579.5448LES FOULÉES DE SAINT-GERMAIN EN LAYESEMFRA1864979
61GAUTREAU Philippe02:31:459.4960LE CHESNAY 78 ASSEMFRA1704679
62TILLIER Ludovic02:34:329.32158SEMFRA
63GEGOUT Sébastien02:36:249.2162SEMFRA55578952
64WIBOUT Alexandre02:54:498.24169SEMFRA
65BRISSON Guillaume02:54:508.2427SEMFRA
66MOUNDRAS Billy02:54:508.24118SEMFRA
67BOUGOT Thomas02:58:008.0924SEMFRA
------------------------------------
1ESPER Elena02:10:0011.0852FREE RUNNERS LE CLUBM1FFRA1601036
2SCHNEIDER Céline02:13:3610.78152FREE IRON TEAMM1FFRA
3MERRIEN Gwenaelle02:33:049.41116TRAIL ENTRE ELLESM1FFRA
4RAUMEL Scheherazade02:35:459.25136DOMONT ATHLETHISMEM1FFRA1466289
5GATEFAIT Véronique02:40:368.9759M1FFRA
6TOURTELIER Sonia02:49:318.49162M1FFRA
7GONTIER Myriam02:57:598.0969M1FFRA
------------------------------------
1PRUGNAUD Gilles01:42:3714.03133ANDRESY ATHLETISMEM1MFRA476572
2SCHNEIDER Christophe01:43:3313.91151FREE IRON TEAMM1MFRA
3SANSON Christophe01:44:2213.80149M1MFRA
4BANDRAC Fabrice01:47:1113.438M1MFRA
5BETHUEL Marc01:49:5113.1115YPRL SAINT CYR TRIATHLONM1MFRAA02655C0130020MV1FRA
6OLLAGNIER Jerome01:51:2212.93123ASCC RAMBOUILLET OLYMPIQUEM1MFRA1518392
7COUTREAU Julien01:57:2612.2637M1MFRA
8SAVINO Gil01:57:3712.24150RUMBA - BOIS D'ARCYM1MFRA1757610
9VANDEWIELE Jerome01:57:4012.24164M1MFRAA60526C
10LABARRE Cyril01:57:5412.2190CSA 7RMATM1MFRA
11COUGARD Benoit01:58:5112.1236M1MFRA
12JOOS Eric01:59:0812.0983CA BEYNESM1MFRA1494986
13MARS Didier01:59:3312.05111ANDRESY ATHLETISMEM1MFRA1794763
14LEMONNIER Christophe01:59:5612.01103C.A.JM1MFRA1809516
15RUPPRECHT Benoît02:02:3711.74147LES FOULÉES DE SAINT-GERMAIN EN LAYEM1MFRA1001207
16BABUEL Charles02:03:0211.705ASCC RAMBOUILLET OLYMPIQUEM1MFRAA01804C
17FILLETTE Stephane02:04:1511.5955FOULEES DE ST GERMAIN EN LAYEM1MFRA1046250
18POULLARD Christophe02:05:0511.51130CA BEYNESM1MFRA530585
19BERNADET Arnaud02:05:4011.4612M1MFRA
20HOEBLER Yann02:07:0711.33177ASC GANM1MFRA1676150
21HELMER Cedric02:08:4611.1877M1MFRA
22DANAÏLOV Kamen02:08:5611.17174M1MFRA
23HULIN Bruno02:08:5711.1781NOGENT SOLIDARITÉ TRIATHLONM1MFRA0130078MV2FRA
24AVRIN Willy02:09:1811.144M1MFRA
25CHASSAGNE Marc02:09:5611.0832M1MFRA
26PAPET Stef02:10:0711.07124RUMBM1MFRA
27MINOT Eric02:12:2610.87117M1MFRA
28LE GUEN Fabrice02:13:3510.7898M1MFRA
29MERCIER Nicolas02:14:1510.73115TRIATH CLUB ANDRESYM1MFRAA01991C
30GAILLARD Stephan02:16:2810.5557CLOCAM1MFRA
31CAPELLO JEROME02:16:3610.54180ACCRORUNM1MFRA
32MUNOZ Jose02:16:4010.54119FOULEES DE ST GERMAIN EN LAYEM1MFRA1542990
33EVAIN Jean Marc02:18:2210.41176M1MFRA
34DUBOIS Fabrice02:18:2910.4049M1MFRA
35GENOIS Mickael02:18:3310.3964MACADAM AND TRAILM1MFRA
36AMBROISE Philippe02:21:3710.171M1MFRA
37OBIN Christophe02:29:169.65121M1MFRA
38YVONNET Franck02:30:069.59170M1MFRA
39RENOU Cyrille02:30:149.59137UA VERSAILLESM1MFRA1571827
40AUGUSTE François02:32:289.442M1MFRA
41BOUCHER Patrice02:32:589.4122M1MFRA
42HENRIET James02:33:219.3978ANDRESY ATHLETISMEM1MFRA1584497
43BRULEZ Frédéric02:34:599.2928MACADAM AND TRAILM1MFRA
44BELLANDE Herve02:36:389.1911M1MFRA
45RIVIERE Jerome02:36:519.18140MACADAM AND TRAILM1MFRA
46PROVOST Nicolas02:37:369.14132M1MFRA
47ZIMMERMANN Cyril02:38:239.09171EA SAINT QUENTIN EN YVELINESM1MFRA1823809
48LOISEL Laurent02:43:098.83105CLOCAM1MFRA1593817
49TOURTELIER Gael02:49:328.49161M1MFRA
50BONPAN Erick02:50:148.4620M1MFRA
51DURAND Yann02:51:148.4151MACADAM AND TRAILM1MFRA
52POULIQUEN Nicolas02:54:518.24129M1MFRA
53DALMAIS Frederic02:20:3610.2439M1MFRA
------------------------------------
1BOBY Giulia02:27:469.7516M2FFRA
2LANDAUD Sophie02:31:459.4994M2FFRA
3GAILLON Veronique02:32:269.4558US CRETEILM2FFRA1378256
4WATANABE Riko02:41:188.93168M2FFRA
5FELDEN Sylvie02:54:438.2453SAMM2FFRA1863455
------------------------------------
1DJENAOUSSINE Abdelkader01:48:2013.2944CA BEYNESM2MFRA1063326
2BALAUDÉ Jean-François01:54:4312.557M2MFRA
3GUIGNARD William02:02:1411.7875WOLF GAMB TEAMM2MFRAEN COURS FFA
4SCIELLER Patrick02:06:0511.42153M2MFRA
5FRISCA PASCAL02:06:5511.35182M2MFRA
6LIGNEY François02:10:0011.08104LE SOUFFLE D'ORGERUSM2MFRA1216594
7LEGER Luc02:11:1110.98101M2MFRA
8MARGERTE Philippe02:13:4710.76109DRAVEIL TRIATHLONM2MFRAA01847C
9RIVEIRRE Patrick02:16:2010.56139CAP COIGNIERESM2MFRA
10VEJRICH Patrick02:18:1010.42166CHAVILLE ATHLÉTISMEM2MFRA1064959
11TOUTOUTE-FAUCONNIER Francky02:21:3410.17163LES FOULÉES DE SAINT-GERMAIN EN LAYEM2MFRA436832
12KELLER Guillaume02:25:179.9188M2MFRA
13DEPREZ Gabriel02:25:559.8743SILCA CLUB RUNNINGM2MFRAT196661
14BOBY Laurent02:27:469.7517M2MFRA
15MAGUIN Laurent02:30:469.55106SMACM2MFRA774022
16GUERCI Jean Yves02:32:129.4673M2MFRA
17MARIETTE Alain02:34:049.35110M2MFRA
18VAUDOUR Rémy02:34:119.34165M2MFRA
19MAUCLERE Pascal02:37:039.17178M2MFRA
20POULAIN Pascal02:38:229.09128ASPTT COMPIEGNEM2MFRA
21PETITCOLLIN Patrice02:40:548.95125M2MFRA
22CLUET Pascal02:41:198.9335M2MFRA
23VILLANI Patrick02:56:458.15167M2MFRA
24BONNETAIN Jean-Luc01:19:4118.0719APY BUCM2MFRA1329090
25BONDUE Olivier01:24:5316.96172M2MFRA
26VEIL Jean Christophe01:26:5616.56183M2MFRA
------------------------------------
1LE GALLOU Pierre-Yves02:15:0510.6697CHAVILLE ATHLÉTISMEM3MFRA301393
logo_onsinscrit